Adams, Kentucky
Current Conditions -  °F | °C
As of 1:35 PM on Sunday 21 Dec 2014 (Local Time) from KSJS Reporting Station
Clear Clear  
Wind Chill: 42°   Ceiling: Unl
Heat Index: 42°   Visibility: 10mi
Dew Point: 29°   Wind: 0mph
Humidity: 58%   Direction: NA
Pressure: 30.19"   Gusts: NA
Location:  38.05°N, 82.71°W
Report Text: KSJS 211835Z AUTO 00000KT 10SM CLR 06/M02 A3019 RMK AO2 T00571019
Loading
Personal Weather Stations






























Interactive Weather Map New forecast layout! Learn more

10-Day Weather Forecast

Advertisements
Track Severe Weather on mobile